
Distance (Route):
Temperature : -47.4°C
Humidity : 19.1%
Pressure : 0hPa| Receiver | Frames | First received | Last received |
|---|---|---|---|
| LZ4TU-5 | 106 | 2026-09-05 11:05:26 | 2026-09-05 12:52:02 |
| Receiver | Date | Latitude | Longitude | Direction | Speed | Altitude | Climb | Temperature | Humidity | Pressure | Voltage | Killtimer | Uptime | BKT | XDATA |
|---|---|---|---|---|---|---|---|---|---|---|---|---|---|---|---|
| LZ4TU-5 | 2026-09-05 12:52:02 | -38.25477 | -36.13914 | 0° | 0km/h | 8156m | 0.0m/s | -47.4°C | 19.1% | 0hPa | 0V | 00:00:00 | 00:00:00 | 00:00:00 | |
| LZ4TU-5 | 2026-09-05 12:51:57 | -38.25477 | -36.13914 | 0° | 0km/h | 8156m | 0.0m/s | -47.9°C | 19.8% | 0hPa | 0V | 00:00:00 | 00:00:00 | 00:00:00 | |
| LZ4TU-5 | 2026-09-05 12:49:25 | -38.25477 | -36.13914 | 0° | 0km/h | 8156m | 0.0m/s | -64.4°C | 16.6% | 0hPa | 0V | 00:00:00 | 00:00:00 | 00:00:00 | |
| LZ4TU-5 | 2026-09-05 12:49:20 | -38.25477 | -36.13914 | 0° | 0km/h | 8156m | 0.0m/s | -65.1°C | 16.6% | 0hPa | 0V | 00:00:00 | 00:00:00 | 00:00:00 | |
| LZ4TU-5 | 2026-09-05 12:46:31 | -38.25477 | -36.13914 | 0° | 0km/h | 8156m | 0.0m/s | -60.5°C | 3.3% | 0hPa | 0V | 00:00:00 | 00:00:00 | 00:00:00 | |
| LZ4TU-5 | 2026-09-05 12:46:27 | -38.25477 | -36.13914 | 0° | 0km/h | 8156m | 0.0m/s | -60.4°C | 3.3% | 0hPa | 0V | 00:00:00 | 00:00:00 | 00:00:00 | |
| LZ4TU-5 | 2026-09-05 12:42:10 | -38.25477 | -36.13914 | 0° | 0km/h | 8156m | 0.0m/s | -54.9°C | 2.3% | 0hPa | 0V | 00:00:00 | 00:00:00 | 00:00:00 | |
| LZ4TU-5 | 2026-09-05 12:42:05 | -38.25477 | -36.13914 | 0° | 0km/h | 8156m | 0.0m/s | -54.7°C | 2.2% | 0hPa | 0V | 00:00:00 | 00:00:00 | 00:00:00 | |
| LZ4TU-5 | 2026-09-05 12:39:33 | -38.25477 | -36.13914 | 0° | 0km/h | 8156m | 0.0m/s | -51.0°C | 1.9% | 0hPa | 0V | 00:00:00 | 00:00:00 | 00:00:00 | |
| LZ4TU-5 | 2026-09-05 12:39:29 | -38.25477 | -36.13914 | 0° | 0km/h | 8156m | 0.0m/s | -51.2°C | 2.1% | 0hPa | 0V | 00:00:00 | 00:00:00 | 00:00:00 | |
| LZ4TU-5 | 2026-09-05 12:36:56 | -38.25477 | -36.13914 | 0° | 0km/h | 8156m | 0.0m/s | -49.9°C | 1.8% | 0hPa | 0V | 00:00:00 | 00:00:00 | 00:00:00 | |
| LZ4TU-5 | 2026-09-05 12:36:51 | -38.25477 | -36.13914 | 0° | 0km/h | 8156m | 0.0m/s | -50.6°C | 1.9% | 0hPa | 0V | 00:00:00 | 00:00:00 | 00:00:00 | |
| LZ4TU-5 | 2026-09-05 12:34:33 | -38.25477 | -36.13914 | 0° | 0km/h | 8156m | 0.0m/s | -51.4°C | 2.0% | 0hPa | 0V | 00:00:00 | 00:00:00 | 00:00:00 | |
| LZ4TU-5 | 2026-09-05 12:34:29 | -40.36526 | -40.04813 | 0° | 0km/h | 8926m | 0.0m/s | -51.4°C | 1.9% | 0hPa | 0V | 00:00:00 | 00:00:00 | 00:00:00 | |
| LZ4TU-5 | 2026-09-05 12:29:02 | -2.63888 | -79.93515 | 0° | 0km/h | 45m | 0.0m/s | -53.0°C | 3.9% | 0hPa | 0V | 00:00:00 | 00:00:00 | 00:00:00 | |
| LZ4TU-5 | 2026-09-05 12:28:57 | 2.24434 | -59.47358 | 0° | 0km/h | 33m | 0.0m/s | -53.3°C | 4.1% | 0hPa | 0V | 00:00:00 | 00:00:00 | 00:00:00 | |
| LZ4TU-5 | 2026-09-05 12:22:43 | -12.03066 | -77.05225 | 71° | 203km/h | 976m | -1.3m/s | -55.3°C | 4.1% | 0hPa | 0V | 00:00:00 | 00:00:00 | 00:00:00 | |
| LZ4TU-5 | 2026-09-05 12:22:38 | -12.03066 | -77.05225 | 71° | 203km/h | 976m | -1.3m/s | -55.6°C | 4.2% | 0hPa | 0V | 00:00:00 | 00:00:00 | 00:00:00 | |
| LZ4TU-5 | 2026-09-05 12:20:26 | -12.03123 | -77.05367 | 65° | 199km/h | 981m | -0.4m/s | -56.7°C | 4.3% | 0hPa | 0V | 00:00:00 | 00:00:00 | 00:00:00 | |
| LZ4TU-5 | 2026-09-05 12:20:22 | -12.03234 | -77.05539 | 50° | 197km/h | 981m | -0.1m/s | -56.6°C | 4.3% | 0hPa | 0V | 00:00:00 | 00:00:00 | 00:00:00 | |
| LZ4TU-5 | 2026-09-05 12:18:11 | -12.04084 | -77.05861 | 352° | 199km/h | 990m | -0.1m/s | -55.6°C | 4.1% | 0hPa | 0V | 00:00:00 | 00:00:00 | 00:00:00 | |
| LZ4TU-5 | 2026-09-05 12:18:06 | -12.04326 | -77.05785 | 335° | 199km/h | 987m | -0.6m/s | -55.6°C | 4.1% | 0hPa | 0V | 00:00:00 | 00:00:00 | 00:00:00 | |
| LZ4TU-5 | 2026-09-05 12:15:57 | -12.04827 | -77.05124 | 282° | 199km/h | 990m | 0.1m/s | -56.5°C | 4.4% | 0hPa | 0V | 00:00:00 | 00:00:00 | 00:00:00 | |
| LZ4TU-5 | 2026-09-05 12:15:53 | -12.04841 | -77.04920 | 268° | 201km/h | 988m | -0.6m/s | -56.2°C | 4.4% | 0hPa | 0V | 00:00:00 | 00:00:00 | 00:00:00 | |
| LZ4TU-5 | 2026-09-05 12:13:23 | -12.03436 | -77.04192 | 147° | 199km/h | 992m | -0.0m/s | -56.9°C | 4.5% | 0hPa | 0V | 00:00:00 | 00:00:00 | 00:00:00 | |
| LZ4TU-5 | 2026-09-05 12:13:19 | -12.03247 | -77.04362 | 131° | 199km/h | 992m | -0.0m/s | -56.6°C | 4.6% | 0hPa | 0V | 00:00:00 | 00:00:00 | 00:00:00 | |
| LZ4TU-5 | 2026-09-05 12:10:45 | -12.03942 | -77.05882 | 360° | 199km/h | 987m | -0.7m/s | -59.4°C | 5.5% | 0hPa | 0V | 00:00:00 | 00:00:00 | 00:00:00 | |
| LZ4TU-5 | 2026-09-05 12:10:40 | -12.04193 | -77.05837 | 344° | 199km/h | 988m | 0.0m/s | -59.1°C | 5.5% | 0hPa | 0V | 00:00:00 | 00:00:00 | 00:00:00 | |
| LZ4TU-5 | 2026-09-05 12:08:52 | -12.04722 | -77.04490 | 240° | 203km/h | 985m | -0.8m/s | -60.4°C | 5.8% | 0hPa | 0V | 00:00:00 | 00:00:00 | 00:00:00 | |
| LZ4TU-5 | 2026-09-05 12:06:30 | -12.03410 | -77.04206 | 145° | 199km/h | 991m | -0.1m/s | -60.5°C | 6.1% | 0hPa | 0V | 00:00:00 | 00:00:00 | 00:00:00 | |
| LZ4TU-5 | 2026-09-05 12:06:25 | -12.03229 | -77.04380 | 129° | 199km/h | 982m | -1.3m/s | -60.4°C | 5.9% | 0hPa | 0V | 00:00:00 | 00:00:00 | 00:00:00 | |
| LZ4TU-5 | 2026-09-05 12:04:12 | -12.03139 | -77.05391 | 63° | 199km/h | 986m | 0.4m/s | -59.2°C | 6.3% | 0hPa | 0V | 00:00:00 | 00:00:00 | 00:00:00 | |
| LZ4TU-5 | 2026-09-05 12:01:45 | -12.04625 | -77.05547 | 311° | 199km/h | 985m | 2.1m/s | -61.4°C | 9.4% | 0hPa | 0V | 00:00:00 | 00:00:00 | 00:00:00 | |
| LZ4TU-5 | 2026-09-05 11:59:36 | -12.03211 | -77.05557 | 56° | 199km/h | 992m | 0.1m/s | -62.3°C | 24.1% | 0hPa | 0V | 00:00:00 | 00:00:00 | 00:00:00 | |
| LZ4TU-5 | 2026-09-05 11:59:31 | -12.03391 | -77.05746 | 40° | 199km/h | 1001m | 0.3m/s | -62.3°C | 25.5% | 0hPa | 0V | 00:00:00 | 00:00:00 | 00:00:00 | |
| LZ4TU-5 | 2026-09-05 11:55:10 | -38.20280 | -32.70347 | 0° | 0km/h | 8137m | 0.0m/s | -62.1°C | 34.9% | 0hPa | 0V | 00:00:00 | 00:00:00 | 00:00:00 | |
| LZ4TU-5 | 2026-09-05 11:55:06 | -38.20280 | -32.70347 | 0° | 0km/h | 8137m | 0.0m/s | -62.0°C | 36.3% | 0hPa | 0V | 00:00:00 | 00:00:00 | 00:00:00 | |
| LZ4TU-5 | 2026-09-05 11:53:01 | -38.40072 | -32.98307 | 0° | 0km/h | 8209m | 0.0m/s | -59.3°C | 36.3% | 0hPa | 0V | 00:00:00 | 00:00:00 | 00:00:00 | |
| LZ4TU-5 | 2026-09-05 11:52:56 | -38.88820 | -33.53125 | 0° | 0km/h | 8386m | 0.0m/s | -59.1°C | 38.1% | 0hPa | 0V | 00:00:00 | 00:00:00 | 00:00:00 | |
| LZ4TU-5 | 2026-09-05 11:48:18 | 44.40775 | 26.49481 | 98° | 62km/h | 11821m | -13.2m/s | -49.6°C | 19.1% | 0hPa | 0V | 00:00:00 | 00:00:00 | 00:00:00 | |
| LZ4TU-5 | 2026-09-05 11:48:14 | 44.40777 | 26.49375 | 101° | 66km/h | 11892m | 0.3m/s | -49.5°C | 18.9% | 0hPa | 0V | 00:00:00 | 00:00:00 | 00:00:00 | |
| LZ4TU-5 | 2026-09-05 11:46:08 | 44.41351 | 26.47116 | 101° | 53km/h | 10900m | 3.4m/s | -45.6°C | 16.8% | 0hPa | 0V | 00:00:00 | 00:00:00 | 00:00:00 | |
| LZ4TU-5 | 2026-09-05 11:46:03 | 44.41317 | 26.47069 | 335° | 230km/h | 10878m | 10.3m/s | -45.6°C | 16.8% | 0hPa | 0V | 00:00:00 | 00:00:00 | 00:00:00 | |
| LZ4TU-5 | 2026-09-05 11:44:22 | 44.41619 | 26.45138 | 107° | 57km/h | 10582m | 4.5m/s | -42.8°C | 13.6% | 0hPa | 0V | 00:00:00 | 00:00:00 | 00:00:00 | |
| LZ4TU-5 | 2026-09-05 11:44:17 | 44.41630 | 26.45043 | 78° | 51km/h | 10572m | 5.7m/s | -42.6°C | 13.6% | 0hPa | 0V | 00:00:00 | 00:00:00 | 00:00:00 | |
| LZ4TU-5 | 2026-09-05 11:42:30 | 44.41988 | 26.43169 | 99° | 53km/h | 10164m | 3.8m/s | -39.4°C | 11.6% | 0hPa | 0V | 00:00:00 | 00:00:00 | 00:00:00 | |
| LZ4TU-5 | 2026-09-05 11:42:25 | 44.42001 | 26.43079 | 106° | 51km/h | 10147m | 4.3m/s | -39.2°C | 12.1% | 0hPa | 0V | 00:00:00 | 00:00:00 | 00:00:00 | |
| LZ4TU-5 | 2026-09-05 11:40:46 | 44.42194 | 26.41359 | 118° | 69km/h | 9734m | 1.6m/s | -35.9°C | 10.4% | 0hPa | 0V | 00:00:00 | 00:00:00 | 00:00:00 | |
| LZ4TU-5 | 2026-09-05 11:40:41 | 44.42200 | 26.41272 | 88° | 49km/h | 9712m | 3.6m/s | -35.7°C | 10.3% | 0hPa | 0V | 00:00:00 | 00:00:00 | 00:00:00 | |
| LZ4TU-5 | 2026-09-05 11:37:28 | 44.42671 | 26.38009 | 87° | 40km/h | 8987m | 4.1m/s | -30.8°C | 10.0% | 0hPa | 0V | 00:00:00 | 00:00:00 | 00:00:00 | |
| LZ4TU-5 | 2026-09-05 11:37:23 | 44.42672 | 26.37941 | 97° | 37km/h | 8966m | 3.9m/s | -30.6°C | 9.6% | 0hPa | 0V | 00:00:00 | 00:00:00 | 00:00:00 | |
| LZ4TU-5 | 2026-09-05 11:35:52 | 44.42780 | 26.36688 | 90° | 37km/h | 8580m | 4.3m/s | -27.8°C | 11.5% | 0hPa | 0V | 00:00:00 | 00:00:00 | 00:00:00 | |
| LZ4TU-5 | 2026-09-05 11:35:47 | 44.42778 | 26.36640 | 88° | 35km/h | 8563m | 4.5m/s | -27.6°C | 11.4% | 0hPa | 0V | 00:00:00 | 00:00:00 | 00:00:00 | |
| LZ4TU-5 | 2026-09-05 11:34:24 | 44.42881 | 26.35596 | 97° | 37km/h | 8239m | 3.7m/s | -25.0°C | 10.4% | 0hPa | 0V | 00:00:00 | 00:00:00 | 00:00:00 | |
| LZ4TU-5 | 2026-09-05 11:34:19 | 44.42887 | 26.35534 | 102° | 37km/h | 8220m | 3.9m/s | -24.8°C | 10.4% | 0hPa | 0V | 00:00:00 | 00:00:00 | 00:00:00 | |
| LZ4TU-5 | 2026-09-05 11:33:02 | 44.43044 | 26.34520 | 100° | 42km/h | 7938m | 3.3m/s | -23.0°C | 11.6% | 0hPa | 0V | 00:00:00 | 00:00:00 | 00:00:00 | |
| LZ4TU-5 | 2026-09-05 11:32:57 | 44.43052 | 26.34447 | 102° | 42km/h | 7921m | 3.2m/s | -22.9°C | 0% | 0hPa | 0V | 00:00:00 | 00:00:00 | 00:00:00 | |
| LZ4TU-5 | 2026-09-05 11:31:47 | 44.43281 | 26.33367 | 108° | 49km/h | 7683m | 4.0m/s | -21.3°C | 13.4% | 0hPa | 0V | 00:00:00 | 00:00:00 | 00:00:00 | |
| LZ4TU-5 | 2026-09-05 11:31:42 | 44.43299 | 26.33286 | 111° | 46km/h | 7665m | 3.3m/s | -21.2°C | 13.9% | 0hPa | 0V | 00:00:00 | 00:00:00 | 00:00:00 | |
| LZ4TU-5 | 2026-09-05 11:30:31 | 44.43607 | 26.32417 | 129° | 33km/h | 7411m | 2.7m/s | -19.7°C | 16.8% | 0hPa | 0V | 00:00:00 | 00:00:00 | 00:00:00 | |
| LZ4TU-5 | 2026-09-05 11:30:26 | 44.43632 | 26.32371 | 128° | 33km/h | 7393m | 4.4m/s | -19.6°C | 16.4% | 0hPa | 0V | 00:00:00 | 00:00:00 | 00:00:00 | |
| LZ4TU-5 | 2026-09-05 11:29:16 | 44.44027 | 26.31672 | 130° | 38km/h | 7130m | 3.9m/s | -18.1°C | 20.3% | 0hPa | 0V | 00:00:00 | 00:00:00 | 00:00:00 | |
| LZ4TU-5 | 2026-09-05 11:29:11 | 44.44060 | 26.31617 | 131° | 42km/h | 7110m | 3.9m/s | -17.9°C | 20.2% | 0hPa | 0V | 00:00:00 | 00:00:00 | 00:00:00 | |
| LZ4TU-5 | 2026-09-05 11:28:01 | 44.44551 | 26.30804 | 131° | 44km/h | 6838m | 4.9m/s | -16.5°C | 23.6% | 0hPa | 0V | 00:00:00 | 00:00:00 | 00:00:00 | |
| LZ4TU-5 | 2026-09-05 11:27:56 | 44.44587 | 26.30744 | 132° | 42km/h | 6818m | 3.2m/s | -16.4°C | 25.3% | 0hPa | 0V | 00:00:00 | 00:00:00 | 00:00:00 | |
| LZ4TU-5 | 2026-09-05 11:26:46 | 44.45049 | 26.29997 | 130° | 37km/h | 6542m | 4.3m/s | -14.1°C | 25.6% | 0hPa | 0V | 00:00:00 | 00:00:00 | 00:00:00 | |
| LZ4TU-5 | 2026-09-05 11:26:41 | 44.45081 | 26.29947 | 136° | 40km/h | 6522m | 3.8m/s | -13.9°C | 25.3% | 0hPa | 0V | 00:00:00 | 00:00:00 | 00:00:00 | |
| LZ4TU-5 | 2026-09-05 11:25:39 | 44.45476 | 26.29329 | 129° | 37km/h | 6292m | 4.2m/s | -12.6°C | 26.5% | 0hPa | 0V | 00:00:00 | 00:00:00 | 00:00:00 | |
| LZ4TU-5 | 2026-09-05 11:25:34 | 44.45508 | 26.29283 | 140° | 38km/h | 6272m | 3.5m/s | -12.5°C | 26.8% | 0hPa | 0V | 00:00:00 | 00:00:00 | 00:00:00 | |
| LZ4TU-5 | 2026-09-05 11:24:31 | 44.45855 | 26.28782 | 136° | 29km/h | 6034m | 3.3m/s | -11.3°C | 37.5% | 0hPa | 0V | 00:00:00 | 00:00:00 | 00:00:00 | |
| LZ4TU-5 | 2026-09-05 11:24:26 | 44.45879 | 26.28748 | 133° | 26km/h | 6016m | 3.4m/s | -11.1°C | 35.5% | 0hPa | 0V | 00:00:00 | 00:00:00 | 00:00:00 | |
| LZ4TU-5 | 2026-09-05 11:23:23 | 44.46156 | 26.28295 | 121° | 26km/h | 5784m | 3.4m/s | -9.4°C | 38.2% | 0hPa | 0V | 00:00:00 | 00:00:00 | 00:00:00 | |
| LZ4TU-5 | 2026-09-05 11:23:18 | 44.46175 | 26.28255 | 123° | 24km/h | 5767m | 3.9m/s | -9.2°C | 38.6% | 0hPa | 0V | 00:00:00 | 00:00:00 | 00:00:00 | |
| LZ4TU-5 | 2026-09-05 11:22:15 | 44.46425 | 26.27790 | 133° | 29km/h | 5533m | 3.7m/s | -7.9°C | 47.7% | 0hPa | 0V | 00:00:00 | 00:00:00 | 00:00:00 | |
| LZ4TU-5 | 2026-09-05 11:22:10 | 44.46449 | 26.27749 | 130° | 29km/h | 5514m | 4.5m/s | -7.9°C | 0% | 0hPa | 0V | 00:00:00 | 00:00:00 | 00:00:00 | |
| LZ4TU-5 | 2026-09-05 11:21:07 | 44.46769 | 26.27322 | 139° | 26km/h | 5279m | 3.7m/s | -6.1°C | 48.5% | 0hPa | 0V | 00:00:00 | 00:00:00 | 00:00:00 | |
| LZ4TU-5 | 2026-09-05 11:21:03 | 44.46789 | 26.27295 | 137° | 29km/h | 5265m | 3.2m/s | -5.9°C | 50.4% | 0hPa | 0V | 00:00:00 | 00:00:00 | 00:00:00 | |
| LZ4TU-5 | 2026-09-05 11:20:00 | 44.47096 | 26.26925 | 143° | 26km/h | 5017m | 3.8m/s | -3.8°C | 45.5% | 0hPa | 0V | 00:00:00 | 00:00:00 | 00:00:00 | |
| LZ4TU-5 | 2026-09-05 11:19:55 | 44.47121 | 26.26898 | 140° | 24km/h | 4998m | 4.5m/s | -3.6°C | 45.0% | 0hPa | 0V | 00:00:00 | 00:00:00 | 00:00:00 | |
| LZ4TU-5 | 2026-09-05 11:18:57 | 44.47343 | 26.26597 | 135° | 20km/h | 4773m | 4.8m/s | -1.7°C | 41.6% | 0hPa | 0V | 00:00:00 | 00:00:00 | 00:00:00 | |
| LZ4TU-5 | 2026-09-05 11:18:52 | 44.47360 | 26.26573 | 132° | 18km/h | 4752m | 3.7m/s | -1.5°C | 41.3% | 0hPa | 0V | 00:00:00 | 00:00:00 | 00:00:00 | |
| LZ4TU-5 | 2026-09-05 11:17:55 | 44.47578 | 26.26280 | 135° | 22km/h | 4539m | 3.4m/s | 0.3°C | 41.7% | 0hPa | 0V | 00:00:00 | 00:00:00 | 00:00:00 | |
| LZ4TU-5 | 2026-09-05 11:17:50 | 44.47600 | 26.26255 | 140° | 24km/h | 4521m | 3.3m/s | 0.4°C | 0% | 0hPa | 0V | 00:00:00 | 00:00:00 | 00:00:00 | |
| LZ4TU-5 | 2026-09-05 11:16:52 | 44.47862 | 26.25965 | 139° | 22km/h | 4298m | 4.1m/s | 1.8°C | 47.0% | 0hPa | 0V | 00:00:00 | 00:00:00 | 00:00:00 | |
| LZ4TU-5 | 2026-09-05 11:16:47 | 44.47885 | 26.25937 | 143° | 26km/h | 4280m | 4.2m/s | 1.9°C | 49.8% | 0hPa | 0V | 00:00:00 | 00:00:00 | 00:00:00 | |
| LZ4TU-5 | 2026-09-05 11:15:49 | 44.48211 | 26.25597 | 142° | 26km/h | 4069m | 4.1m/s | 3.3°C | 51.3% | 0hPa | 0V | 00:00:00 | 00:00:00 | 00:00:00 | |
| LZ4TU-5 | 2026-09-05 11:15:44 | 44.48237 | 26.25568 | 143° | 26km/h | 4051m | 3.8m/s | 3.5°C | 50.6% | 0hPa | 0V | 00:00:00 | 00:00:00 | 00:00:00 | |
| LZ4TU-5 | 2026-09-05 11:14:42 | 44.48537 | 26.25161 | 136° | 27km/h | 3828m | 4.5m/s | 5.4°C | 0% | 0hPa | 0V | 00:00:00 | 00:00:00 | 00:00:00 | |
| LZ4TU-5 | 2026-09-05 11:13:44 | 44.48802 | 26.24757 | 128° | 27km/h | 3617m | 4.7m/s | 6.4°C | 0% | 0hPa | 0V | 00:00:00 | 00:00:00 | 00:00:00 | |
| LZ4TU-5 | 2026-09-05 11:13:39 | 44.48822 | 26.24712 | 123° | 31km/h | 3598m | 3.5m/s | 6.4°C | 0% | 0hPa | 0V | 00:00:00 | 00:00:00 | 00:00:00 | |
| LZ4TU-5 | 2026-09-05 11:12:41 | 44.49097 | 26.24166 | 130° | 35km/h | 3362m | 5.2m/s | 7.6°C | 0% | 0hPa | 0V | 00:00:00 | 00:00:00 | 00:00:00 | |
| LZ4TU-5 | 2026-09-05 11:12:37 | 44.49120 | 26.24128 | 133° | 35km/h | 3345m | 5.9m/s | 7.7°C | 0% | 0hPa | 0V | 00:00:00 | 00:00:00 | 00:00:00 | |
| LZ4TU-5 | 2026-09-05 11:11:39 | 44.49429 | 26.23722 | 146° | 27km/h | 3091m | 3.9m/s | 9.9°C | 0% | 0hPa | 0V | 00:00:00 | 00:00:00 | 00:00:00 | |
| LZ4TU-5 | 2026-09-05 11:11:35 | 44.49452 | 26.23699 | 145° | 29km/h | 3076m | 3.3m/s | 10.1°C | 0% | 0hPa | 0V | 00:00:00 | 00:00:00 | 00:00:00 | |
| LZ4TU-5 | 2026-09-05 11:10:37 | 44.49750 | 26.23427 | 162° | 20km/h | 2863m | 3.0m/s | 11.3°C | 0% | 0hPa | 0V | 00:00:00 | 00:00:00 | 00:00:00 | |
| LZ4TU-5 | 2026-09-05 11:10:33 | 44.49768 | 26.23415 | 150° | 18km/h | 2848m | 4.0m/s | 11.4°C | 0% | 0hPa | 0V | 00:00:00 | 00:00:00 | 00:00:00 | |
| LZ4TU-5 | 2026-09-05 11:09:35 | 44.49975 | 26.23182 | 142° | 16km/h | 2613m | 4.9m/s | 13.2°C | 0% | 0hPa | 0V | 00:00:00 | 00:00:00 | 00:00:00 | |
| LZ4TU-5 | 2026-09-05 11:09:31 | 44.49986 | 26.23169 | 135° | 11km/h | 2598m | 3.5m/s | 13.4°C | 0% | 0hPa | 0V | 00:00:00 | 00:00:00 | 00:00:00 | |
| LZ4TU-5 | 2026-09-05 11:08:33 | 44.50134 | 26.22975 | 127° | 9km/h | 2358m | 3.0m/s | 14.9°C | 0% | 0hPa | 0V | 00:00:00 | 00:00:00 | 00:00:00 | |
| LZ4TU-5 | 2026-09-05 11:08:28 | 44.50141 | 26.22956 | 126° | 9km/h | 2341m | 3.5m/s | 14.9°C | 0% | 0hPa | 0V | 00:00:00 | 00:00:00 | 00:00:00 | |
| LZ4TU-5 | 2026-09-05 11:07:30 | 44.50219 | 26.22763 | 114° | 18km/h | 2111m | 5.1m/s | 16.5°C | 0% | 0hPa | 0V | 00:00:00 | 00:00:00 | 00:00:00 | |
| LZ4TU-5 | 2026-09-05 11:07:26 | 44.50227 | 26.22747 | 150° | 13km/h | 2093m | 3.8m/s | 16.6°C | 0% | 0hPa | 0V | 00:00:00 | 00:00:00 | 00:00:00 | |
| LZ4TU-5 | 2026-09-05 11:06:30 | 44.50217 | 26.22580 | 66° | 9km/h | 1864m | 5.3m/s | 17.2°C | 0% | 0hPa | 0V | 00:00:00 | 00:00:00 | 00:00:00 | |
| LZ4TU-5 | 2026-09-05 11:06:26 | 44.50214 | 26.22567 | 66° | 9km/h | 1848m | 4.3m/s | 0°C | 0% | 0hPa | 0V | 00:00:00 | 00:00:00 | 00:00:00 | |
| LZ4TU-5 | 2026-09-05 11:05:30 | 44.50190 | 26.22383 | 110° | 15km/h | 1622m | 5.1m/s | 0°C | 0% | 0hPa | 0V | 00:00:00 | 00:00:00 | 00:00:00 | |
| LZ4TU-5 | 2026-09-05 11:05:26 | 44.50193 | 26.22374 | 341° | 2km/h | 1598m | 4.2m/s | 0°C | 0% | 0hPa | 0V | 00:00:00 | 00:00:00 | 00:00:00 |